Time;durP1;ratioP1;P1;durP2;ratioP2;P2;SDS_P1;SDS_P2;PMS_P1;PMS_P2;Temp;Humidity;BMP_temperature;BMP_pressure;BME280_temperature;BME280_humidity;BME280_pressure;Samples;Min_cycle;Max_cycle;Signal;HPM_P1;HPM_P2
2021/12/26 00:00:05;;;;;;;87.70;45.60;;;;;;;1.14;100.00;99553.45;1788087;80;21921;-81
2021/12/26 00:03:12;;;;;;;89.10;49.00;;;;;;;1.10;100.00;99546.13;1786824;80;21327;-81
2021/12/26 00:06:29;;;;;;;94.10;50.25;;;;;;;1.08;100.00;99576.36;1786517;80;21295;-82
2021/12/26 00:09:34;;;;;;;90.62;47.48;;;;;;;1.05;100.00;99570.42;1789087;79;21276;-82
2021/12/26 00:12:39;;;;;;;83.65;45.83;;;;;;;1.01;100.00;99584.63;1790347;80;21291;-82
2021/12/26 00:15:44;;;;;;;94.40;48.63;;;;;;;0.98;100.00;99586.23;1767788;79;21362;-82
2021/12/26 00:18:51;;;;;;;89.67;46.95;;;;;;;0.99;100.00;99596.05;1767607;81;21156;-82
2021/12/26 00:21:57;;;;;;;88.35;46.65;;;;;;;0.97;100.00;99598.85;1769218;81;21311;-82
2021/12/26 00:25:03;;;;;;;84.35;45.50;;;;;;;0.96;100.00;99591.77;1785695;79;21737;-82
2021/12/26 00:28:08;;;;;;;102.05;50.43;;;;;;;0.94;100.00;99595.56;1800913;79;21208;-82
2021/12/26 00:31:13;;;;;;;93.15;49.70;;;;;;;0.91;100.00;99612.00;1801202;79;21315;-82
2021/12/26 00:34:18;;;;;;;97.92;50.83;;;;;;;0.89;100.00;99608.56;1801242;79;21200;-82
2021/12/26 00:37:23;;;;;;;100.90;51.23;;;;;;;0.83;100.00;99615.34;1801170;79;21585;-82
2021/12/26 00:40:29;;;;;;;99.62;47.88;;;;;;;0.78;100.00;99615.38;1800885;79;21157;-81
2021/12/26 00:43:34;;;;;;;98.52;47.62;;;;;;;0.74;100.00;99607.55;1800214;79;21303;-82
2021/12/26 00:46:39;;;;;;;89.77;44.42;;;;;;;0.73;100.00;99613.08;1791075;79;21300;-82
2021/12/26 00:49:46;;;;;;;92.05;45.15;;;;;;;0.70;100.00;99610.14;1790227;80;21273;-82
2021/12/26 00:52:51;;;;;;;98.22;45.15;;;;;;;0.70;100.00;99607.45;1790398;80;21165;-82
2021/12/26 00:55:58;;;;;;;87.62;43.38;;;;;;;0.71;100.00;99602.95;1790408;79;21260;-82
2021/12/26 00:59:03;;;;;;;89.32;42.30;;;;;;;0.75;100.00;99600.33;1773558;80;21221;-82
2021/12/26 01:02:09;;;;;;;82.15;40.25;;;;;;;0.78;100.00;99593.84;1756205;81;21299;-82
2021/12/26 01:05:15;;;;;;;78.87;39.45;;;;;;;0.83;100.00;99590.26;1739853;81;21304;-82
2021/12/26 01:08:20;;;;;;;79.10;38.67;;;;;;;0.88;100.00;99594.25;1758757;81;21324;-82
2021/12/26 01:11:38;;;;;;;70.78;36.05;;;;;;;0.92;100.00;99595.70;1770318;81;21314;-82
2021/12/26 01:14:49;;;;;;;78.40;38.15;;;;;;;0.97;100.00;99596.66;1770691;81;21633;-82
2021/12/26 01:18:00;;;;;;;71.57;36.53;;;;;;;1.00;100.00;99606.67;1769996;80;21178;-82
2021/12/26 01:21:16;;;;;;;84.67;38.10;;;;;;;1.04;100.00;99601.03;1770605;81;21275;-82
2021/12/26 01:24:17;;;;;;;72.60;35.52;;;;;;;1.04;100.00;99599.19;1774315;79;21185;-82
2021/12/26 01:27:23;;;;;;;71.75;36.28;;;;;;;1.06;100.00;99602.59;1786504;80;21818;-82
2021/12/26 01:30:28;;;;;;;76.85;34.60;;;;;;;1.09;100.00;99618.50;1786509;80;21158;-82
2021/12/26 01:33:33;;;;;;;78.35;36.77;;;;;;;1.10;100.00;99608.58;1786181;80;21917;-82
2021/12/26 01:36:43;;;;;;;75.40;34.40;;;;;;;1.09;100.00;99608.22;1786067;80;21323;-82
2021/12/26 01:39:49;;;;;;;76.62;36.08;;;;;;;1.04;100.00;99609.97;1791268;79;21316;-82
2021/12/26 01:43:01;;;;;;;83.67;36.88;;;;;;;0.99;100.00;99616.24;1775773;79;21185;-82
2021/12/26 01:46:09;;;;;;;71.85;33.83;;;;;;;0.94;100.00;99605.87;1799673;79;21199;-81
2021/12/26 01:49:25;;;;;;;62.73;31.95;;;;;;;0.90;100.00;99614.34;1799685;79;21886;-82
2021/12/26 01:52:30;;;;;;;58.63;29.48;;;;;;;0.87;100.00;99618.13;1796791;80;21181;-81
2021/12/26 01:58:45;;;;;;;48.08;25.92;;;;;;;0.88;100.00;99586.18;1786333;80;21315;-81
2021/12/26 02:01:59;;;;;;;43.97;25.83;;;;;;;0.88;100.00;99582.64;1786490;80;21807;-82
2021/12/26 02:05:05;;;;;;;41.85;25.35;;;;;;;0.88;100.00;99586.67;1785736;80;21312;-81
2021/12/26 02:08:10;;;;;;;43.02;26.62;;;;;;;0.86;100.00;99585.47;1727339;83;21326;-81
2021/12/26 02:11:16;;;;;;;38.98;25.52;;;;;;;0.86;100.00;99601.62;1728458;83;21839;-81
2021/12/26 02:14:22;;;;;;;42.78;27.77;;;;;;;0.84;100.00;99594.65;1727966;83;21280;-81
2021/12/26 02:17:43;;;;;;;38.50;23.90;;;;;;;0.82;100.00;99608.75;1728156;83;21287;-81
2021/12/26 02:24:57;;;;;;;26.65;17.80;;;;;;;0.68;100.00;99637.69;1734337;82;21336;-81
2021/12/26 02:27:43;;;;;;;31.77;17.52;;;;;;;0.54;100.00;99645.23;1733776;81;21325;-81
2021/12/26 02:30:48;;;;;;;27.45;17.10;;;;;;;0.39;100.00;99656.29;1737949;82;21272;-81
2021/12/26 02:33:55;;;;;;;25.82;15.63;;;;;;;0.25;100.00;99658.77;1753335;82;21910;-81
2021/12/26 02:37:00;;;;;;;25.75;14.55;;;;;;;0.14;100.00;99668.23;1753684;82;21305;-81
2021/12/26 02:40:04;;;;;;;19.42;11.78;;;;;;;0.03;100.00;99662.85;1737020;82;21802;-81
2021/12/26 02:43:10;;;;;;;12.00;8.73;;;;;;;-0.09;100.00;99647.73;1753523;82;21300;-81
2021/12/26 02:46:16;;;;;;;11.53;7.10;;;;;;;-0.18;100.00;99674.02;1717678;83;21325;-81
2021/12/26 02:49:21;;;;;;;14.40;7.28;;;;;;;-0.28;100.00;99650.56;1688907;85;21217;-80
2021/12/26 02:52:25;;;;;;;12.82;8.50;;;;;;;-0.39;100.00;99653.24;1753722;82;21359;-81
2021/12/26 02:55:30;;;;;;;14.80;9.40;;;;;;;-0.50;100.00;99657.78;1713106;81;21267;-81
2021/12/26 02:58:36;;;;;;;13.40;8.45;;;;;;;-0.57;100.00;99657.39;1700685;84;21335;-80
2021/12/26 03:01:41;;;;;;;12.45;8.65;;;;;;;-0.64;100.00;99644.09;1701093;84;21272;-81
2021/12/26 03:04:46;;;;;;;15.93;9.30;;;;;;;-0.68;100.00;99665.45;1700389;84;21861;-80
2021/12/26 03:07:53;;;;;;;14.40;9.28;;;;;;;-0.73;100.00;99664.96;1723809;82;21162;-81
2021/12/26 03:10:59;;;;;;;13.62;9.45;;;;;;;-0.72;100.00;99662.63;1699586;83;21841;-80
2021/12/26 03:14:05;;;;;;;13.95;10.03;;;;;;;-0.69;100.00;99663.75;1742627;82;21283;-81
2021/12/26 03:17:14;;;;;;;12.53;8.20;;;;;;;-0.67;100.00;99668.00;1795170;79;21247;-81
2021/12/26 03:20:21;;;;;;;14.70;10.00;;;;;;;-0.64;100.00;99665.09;1796769;80;21157;-81
2021/12/26 03:23:30;;;;;;;18.15;11.40;;;;;;;-0.62;100.00;99658.24;1783882;79;21326;-80
2021/12/26 03:26:34;;;;;;;;;;;;;;;-0.61;100.00;99666.20;1766523;81;21847;-80
2021/12/26 03:29:38;;;;;;;16.15;10.03;;;;;;;-0.60;100.00;99660.34;1755403;81;20734;-80
2021/12/26 03:32:44;;;;;;;18.48;10.28;;;;;;;-0.62;100.00;99666.30;1762917;81;21346;-80
2021/12/26 03:35:50;;;;;;;13.30;9.20;;;;;;;-0.62;100.00;99667.64;1763982;81;21269;-80
2021/12/26 03:38:55;;;;;;;12.05;8.28;;;;;;;-0.63;100.00;99663.25;1727490;83;21842;-80
2021/12/26 03:41:53;;;;;;;14.13;8.98;;;;;;;-0.65;100.00;99641.90;1727499;83;21338;-81
2021/12/26 03:45:01;;;;;;;13.85;9.38;;;;;;;-0.72;100.00;99631.75;1708354;83;21420;-81
2021/12/26 03:48:06;;;;;;;20.30;10.55;;;;;;;-0.83;100.00;99648.22;1698218;84;21888;-80
2021/12/26 03:51:11;;;;;;;16.30;10.10;;;;;;;-0.87;100.00;99657.48;1697947;84;21876;-81
2021/12/26 03:54:15;;;;;;;15.43;9.28;;;;;;;-0.82;100.00;99658.47;1706714;83;21829;-81
2021/12/26 03:57:21;;;;;;;16.27;9.45;;;;;;;-0.79;100.00;99660.44;1799933;79;21838;-80
2021/12/26 04:00:27;;;;;;;14.83;8.65;;;;;;;-0.77;100.00;99668.36;1801294;79;21294;-81
2021/12/26 04:03:32;;;;;;;12.07;7.80;;;;;;;-0.75;100.00;99675.83;1800846;79;21287;-80
2021/12/26 04:06:39;;;;;;;11.70;7.62;;;;;;;-0.73;100.00;99678.39;1799177;79;21195;-80
2021/12/26 04:09:45;;;;;;;13.85;9.00;;;;;;;-0.72;100.00;99673.37;1739040;80;21301;-81
2021/12/26 04:12:54;;;;;;;12.47;7.60;;;;;;;-0.72;100.00;99658.61;1702907;84;21875;-81
2021/12/26 04:15:59;;;;;;;12.35;8.00;;;;;;;-0.70;100.00;99676.33;1702966;83;21806;-80
2021/12/26 04:19:05;;;;;;;12.35;8.35;;;;;;;-0.65;100.00;99670.59;1729082;82;21304;-80
2021/12/26 04:22:10;;;;;;;12.60;7.75;;;;;;;-0.64;100.00;99687.07;1762655;81;21307;-81
2021/12/26 04:25:15;;;;;;;10.20;7.22;;;;;;;-0.66;100.00;99697.06;1728829;82;21339;-80
2021/12/26 04:28:20;;;;;;;9.45;7.05;;;;;;;-0.66;100.00;99695.26;1717663;82;21335;-81
2021/12/26 04:31:25;;;;;;;10.95;7.30;;;;;;;-0.64;100.00;99703.19;1757350;81;21818;-80
2021/12/26 04:34:31;;;;;;;9.75;6.95;;;;;;;-0.61;100.00;99704.27;1758527;81;21301;-81
2021/12/26 04:37:36;;;;;;;9.80;6.50;;;;;;;-0.61;100.00;99692.18;1758138;81;21319;-81
2021/12/26 04:40:42;;;;;;;11.63;7.22;;;;;;;-0.62;100.00;99694.50;1711322;82;21909;-80
2021/12/26 04:43:54;;;;;;;11.18;6.75;;;;;;;-0.67;100.00;99723.56;1707754;84;21814;-80
2021/12/26 04:46:55;;;;;;;14.87;7.83;;;;;;;-0.67;100.00;99732.96;1759560;81;21328;-81
2021/12/26 04:50:01;;;;;;;9.83;6.80;;;;;;;-0.71;100.00;99719.39;1759581;81;21189;-81
2021/12/26 04:53:08;;;;;;;12.40;7.85;;;;;;;-0.71;100.00;99719.39;1759431;81;21332;-81
2021/12/26 04:56:15;;;;;;;11.63;8.13;;;;;;;-0.74;100.00;99738.45;1729570;83;21315;-81
2021/12/26 04:59:21;;;;;;;11.43;7.58;;;;;;;-0.70;100.00;99750.67;1726326;82;21803;-80
2021/12/26 05:02:28;;;;;;;11.10;6.85;;;;;;;-0.65;100.00;99745.31;1767767;81;21177;-81
2021/12/26 05:05:34;;;;;;;12.55;7.58;;;;;;;-0.63;100.00;99750.55;1731202;83;21218;-80
2021/12/26 05:08:41;;;;;;;11.70;7.92;;;;;;;-0.63;100.00;99767.52;1759891;79;21209;-80
2021/12/26 05:11:47;;;;;;;13.28;8.58;;;;;;;-0.61;100.00;99774.11;1786518;80;21676;-81
2021/12/26 05:14:52;;;;;;;12.18;7.75;;;;;;;-0.58;100.00;99767.17;1786521;80;21264;-81
2021/12/26 05:18:02;;;;;;;19.35;10.23;;;;;;;-0.58;100.00;99771.20;1785742;80;21874;-81
2021/12/26 05:21:07;;;;;;;24.10;12.53;;;;;;;-0.60;100.00;99763.76;1786401;80;21445;-81
2021/12/26 05:24:11;;;;;;;24.65;12.40;;;;;;;-0.58;100.00;99773.39;1782555;79;21174;-81
2021/12/26 05:27:16;;;;;;;24.27;12.33;;;;;;;-0.56;100.00;99767.44;1769962;80;21486;-81
2021/12/26 05:30:24;;;;;;;15.88;8.43;;;;;;;-0.56;100.00;99781.36;1767852;81;21312;-81
2021/12/26 05:33:33;;;;;;;11.73;7.50;;;;;;;-0.61;100.00;99789.77;1768216;81;21216;-81
2021/12/26 05:36:38;;;;;;;14.00;8.53;;;;;;;-0.74;100.00;99798.88;1771162;80;21173;-81
2021/12/26 05:39:45;;;;;;;17.73;10.35;;;;;;;-0.89;100.00;99792.36;1784430;79;21153;-80
2021/12/26 05:42:51;;;;;;;17.45;10.68;;;;;;;-1.01;100.00;99811.22;1802250;79;21208;-81
2021/12/26 05:45:57;;;;;;;24.57;13.58;;;;;;;-1.11;100.00;99833.37;1802179;79;21264;-81
2021/12/26 05:49:02;;;;;;;27.13;15.55;;;;;;;-1.17;100.00;99830.30;1802147;79;21312;-81
2021/12/26 05:52:09;;;;;;;31.75;16.73;;;;;;;-1.24;100.00;99835.73;1802112;79;21295;-81
2021/12/26 05:55:19;;;;;;;34.63;17.70;;;;;;;-1.33;100.00;99831.41;1802286;79;21284;-81
2021/12/26 05:58:24;;;;;;;35.68;18.62;;;;;;;-1.44;100.00;99827.32;1802079;79;21884;-81
2021/12/26 06:01:29;;;;;;;33.78;18.37;;;;;;;-1.54;100.00;99835.66;1800148;79;21268;-81
2021/12/26 06:04:36;;;;;;;37.40;19.52;;;;;;;-1.63;100.00;99845.72;1799821;79;21173;-81
2021/12/26 06:07:40;;;;;;;42.95;21.57;;;;;;;-1.68;100.00;99862.63;1801680;79;21312;-81
2021/12/26 06:10:45;;;;;;;46.23;23.38;;;;;;;-1.72;100.00;99857.10;1798492;79;21189;-81
2021/12/26 06:13:51;;;;;;;50.28;23.30;;;;;;;-1.81;100.00;99853.24;1797950;79;21211;-81
2021/12/26 06:16:57;;;;;;;52.67;25.45;;;;;;;-1.84;100.00;99890.98;1802112;79;21295;-81
2021/12/26 06:20:20;;;;;;;62.38;27.17;;;;;;;-1.92;100.00;99892.03;1801964;79;21252;-81
2021/12/26 06:23:33;;;;;;;61.55;26.85;;;;;;;-1.93;100.00;99886.27;1799908;79;21291;-81
2021/12/26 06:26:56;;;;;;;45.90;22.62;;;;;;;-1.87;100.00;99912.67;1768905;81;21327;-81
2021/12/26 06:30:19;;;;;;;48.17;23.45;;;;;;;-1.78;100.00;99931.28;1770493;81;21204;-81
2021/12/26 06:33:41;;;;;;;57.08;26.50;;;;;;;-1.70;100.00;99939.63;1771077;81;21311;-81
2021/12/26 06:37:04;;;;;;;45.40;23.12;;;;;;;-1.63;100.00;99926.17;1768629;80;21900;-81
2021/12/26 06:40:15;;;;;;;52.67;25.50;;;;;;;-1.50;100.00;99927.52;1779106;80;21296;-81
2021/12/26 06:43:32;;;;;;;;;;;;;;;-1.41;100.00;99931.73;1758629;80;21331;-81
2021/12/26 06:46:54;;;;;;;41.20;21.68;;;;;;;-1.30;100.00;99946.58;1784207;80;20262;-81
2021/12/26 06:50:02;;;;;;;43.25;22.65;;;;;;;-1.29;99.39;99942.06;1784244;80;21261;-81
2021/12/26 06:53:07;;;;;;;35.43;20.57;;;;;;;-1.31;98.82;99939.50;1784150;80;21312;-81
2021/12/26 06:56:11;;;;;;;37.05;20.55;;;;;;;-1.32;98.25;99936.45;1770989;81;21299;-81
2021/12/26 06:59:16;;;;;;;38.40;20.17;;;;;;;-1.31;97.90;99915.34;1759672;81;21842;-81
2021/12/26 07:02:22;;;;;;;38.15;19.40;;;;;;;-1.23;97.54;99925.51;1769693;81;21774;-81
2021/12/26 07:05:27;;;;;;;31.97;18.65;;;;;;;-1.23;96.83;99934.05;1773510;80;21272;-81
2021/12/26 07:08:34;;;;;;;37.42;18.75;;;;;;;-1.20;96.39;99940.06;1778481;80;21834;-81
2021/12/26 07:11:39;;;;;;;33.80;19.15;;;;;;;-1.19;95.91;99938.23;1772587;80;21324;-81
2021/12/26 07:14:46;;;;;;;41.95;19.02;;;;;;;-1.17;95.60;99945.70;1733884;82;21265;-80
2021/12/26 07:17:52;;;;;;;34.50;19.40;;;;;;;-1.16;95.13;99946.08;1734983;82;21858;-81
2021/12/26 07:20:58;;;;;;;40.05;21.65;;;;;;;-1.15;94.85;99951.80;1734798;82;21197;-80
2021/12/26 07:24:06;;;;;;;48.42;22.90;;;;;;;-1.13;94.66;99947.17;1729520;80;21867;-81
2021/12/26 07:27:12;;;;;;;43.30;21.55;;;;;;;-1.10;94.05;99945.63;1710839;84;21976;-80
2021/12/26 07:30:25;;;;;;;40.45;21.85;;;;;;;-1.11;93.37;99950.13;1708553;83;21154;-81
2021/12/26 07:33:30;;;;;;;43.02;22.10;;;;;;;-1.12;92.52;99948.91;1692879;83;21324;-81
2021/12/26 07:36:37;;;;;;;40.38;19.73;;;;;;;-1.17;92.00;99955.95;1677548;85;21311;-82
2021/12/26 07:39:44;;;;;;;40.03;19.98;;;;;;;-1.19;91.64;99953.84;1715935;82;21754;-81
2021/12/26 07:42:51;;;;;;;45.75;20.05;;;;;;;-1.22;91.36;99944.70;1705138;83;21206;-81
2021/12/26 07:46:15;;;;;;;41.35;20.05;;;;;;;-1.22;91.15;99947.84;1713771;82;21162;-82
2021/12/26 07:49:22;;;;;;;36.80;17.48;;;;;;;-1.29;90.40;99955.48;1706415;81;21853;-81
2021/12/26 07:52:46;;;;;;;30.92;17.10;;;;;;;-1.35;90.32;99960.80;1700076;84;21313;-81
2021/12/26 07:56:10;;;;;;;28.17;15.43;;;;;;;-1.35;90.37;99966.17;1732420;82;21157;-81
2021/12/26 07:59:33;;;;;;;29.63;15.03;;;;;;;-1.26;90.21;99977.23;1691772;84;21732;-81
2021/12/26 08:02:57;;;;;;;22.07;12.35;;;;;;;-1.21;89.50;99996.05;1695337;84;21374;-82
2021/12/26 08:06:20;;;;;;;22.10;12.78;;;;;;;-1.23;88.46;100006.51;1688893;84;21166;-81
2021/12/26 08:09:26;;;;;;;26.82;14.13;;;;;;;-1.25;88.39;99995.04;1722421;82;21177;-82
2021/12/26 08:12:33;;;;;;;31.95;15.10;;;;;;;-1.26;88.40;99990.64;1706730;82;21751;-82
2021/12/26 08:15:37;;;;;;;25.37;13.58;;;;;;;-1.24;88.32;100000.77;1769627;81;21872;-81
2021/12/26 08:18:42;;;;;;;20.25;11.95;;;;;;;-1.14;87.79;100009.39;1769309;81;21318;-81
2021/12/26 08:21:52;;;;;;;21.05;11.60;;;;;;;-1.00;87.03;100012.44;1800761;79;21201;-81
2021/12/26 08:24:56;;;;;;;17.87;10.35;;;;;;;-0.85;86.20;100008.67;1799344;79;21303;-82
2021/12/26 08:28:00;;;;;;;17.30;10.90;;;;;;;-0.74;84.41;100006.55;1798373;79;21295;-81
2021/12/26 08:31:06;;;;;;;18.00;10.82;;;;;;;-0.73;83.44;100012.28;1798395;79;21814;-81
2021/12/26 08:34:11;;;;;;;21.02;11.55;;;;;;;-0.63;83.11;100008.44;1798581;79;21279;-81
2021/12/26 08:37:17;;;;;;;19.42;11.63;;;;;;;-0.52;82.75;100012.52;1798589;79;21343;-82
2021/12/26 08:40:22;;;;;;;18.02;11.30;;;;;;;-0.45;81.80;100005.73;1798386;79;21347;-82
2021/12/26 08:43:27;;;;;;;19.07;11.80;;;;;;;-0.41;80.82;100001.86;1798555;79;21314;-81
2021/12/26 08:46:33;;;;;;;17.67;10.60;;;;;;;-0.37;81.32;100003.34;1798501;79;21750;-81
2021/12/26 08:49:39;;;;;;;20.05;12.13;;;;;;;-0.26;80.92;100011.45;1785659;79;21194;-81
2021/12/26 08:52:43;;;;;;;18.62;11.03;;;;;;;-0.15;80.38;100011.13;1757482;81;21284;-81
2021/12/26 08:55:50;;;;;;;14.50;9.68;;;;;;;-0.10;79.99;100017.88;1782156;80;21811;-82
2021/12/26 08:58:57;;;;;;;16.82;10.53;;;;;;;-0.04;79.27;100012.55;1785285;80;21277;-81
2021/12/26 09:02:07;;;;;;;16.23;10.05;;;;;;;0.03;78.31;100021.84;1785077;80;21316;-81
2021/12/26 09:05:11;;;;;;;20.37;9.87;;;;;;;0.04;77.35;100019.52;1772319;79;21299;-81
2021/12/26 09:08:16;;;;;;;18.02;11.28;;;;;;;-0.06;76.54;100018.50;1695390;84;21648;-80
2021/12/26 09:11:23;;;;;;;15.88;10.78;;;;;;;-0.15;76.72;100028.61;1706489;83;21233;-81
2021/12/26 09:14:30;;;;;;;19.60;11.30;;;;;;;-0.15;77.46;100025.92;1702524;83;21189;-81
2021/12/26 09:17:34;;;;;;;25.32;11.25;;;;;;;-0.04;77.67;100036.74;1704213;84;21339;-81
2021/12/26 09:20:39;;;;;;;19.27;11.95;;;;;;;0.08;77.12;100045.21;1704356;83;21304;-80
2021/12/26 09:23:44;;;;;;;24.23;15.03;;;;;;;0.13;76.98;100033.61;1705034;82;21249;-81
2021/12/26 09:26:49;;;;;;;19.82;12.15;;;;;;;0.20;76.84;100034.88;1721725;83;21320;-80
2021/12/26 09:29:55;;;;;;;24.05;12.75;;;;;;;0.25;76.22;100039.91;1721616;83;21336;-81
2021/12/26 09:33:01;;;;;;;21.48;12.13;;;;;;;0.27;76.41;100041.98;1721427;83;21319;-81
2021/12/26 09:36:06;;;;;;;20.37;11.78;;;;;;;0.28;75.43;100034.27;1700652;83;21276;-81
2021/12/26 09:39:12;;;;;;;19.52;11.45;;;;;;;0.22;75.16;100028.03;1766157;79;21659;-81
2021/12/26 09:42:17;;;;;;;19.80;11.90;;;;;;;0.18;75.07;100026.54;1799545;79;21308;-81
2021/12/26 09:45:23;;;;;;;19.32;12.03;;;;;;;0.14;75.78;100025.94;1802168;79;21161;-80
2021/12/26 09:48:28;;;;;;;21.27;11.18;;;;;;;0.14;75.86;100020.56;1802110;79;21299;-80
2021/12/26 09:51:34;;;;;;;19.15;11.90;;;;;;;0.18;75.94;100019.33;1802029;79;21813;-81
2021/12/26 09:54:39;;;;;;;22.75;12.93;;;;;;;0.06;75.52;100020.28;1801852;79;21181;-80
2021/12/26 09:57:45;;;;;;;21.97;11.88;;;;;;;-0.05;75.95;100022.45;1801892;79;21387;-81
2021/12/26 10:00:51;;;;;;;18.95;11.45;;;;;;;-0.15;76.74;100007.09;1802022;79;21248;-81
2021/12/26 10:03:56;;;;;;;14.53;10.53;;;;;;;-0.17;77.41;100017.13;1784576;79;21295;-80
2021/12/26 10:07:15;;;;;;;19.32;12.45;;;;;;;-0.22;77.82;100009.41;1802180;79;21225;-81
2021/12/26 10:10:18;;;;;;;20.43;12.35;;;;;;;-0.23;78.31;100014.91;1805609;79;21293;-80
2021/12/26 10:13:43;;;;;;;21.40;12.50;;;;;;;-0.21;78.29;100011.60;1807903;79;21188;-81
2021/12/26 10:16:56;;;;;;;20.37;13.00;;;;;;;-0.27;78.54;100010.23;1758861;81;21798;-81
2021/12/26 10:20:16;;;;;;;27.15;16.93;;;;;;;-0.28;78.90;100004.01;1757321;81;21173;-81
2021/12/26 10:23:33;;;;;;;26.00;16.30;;;;;;;-0.26;79.05;100006.57;1745219;81;21304;-81
2021/12/26 10:26:42;;;;;;;24.25;14.38;;;;;;;-0.24;79.47;99995.69;1769200;81;21324;-81
2021/12/26 10:29:52;;;;;;;24.82;13.88;;;;;;;-0.15;79.83;99999.89;1769427;81;21284;-81
2021/12/26 10:33:05;;;;;;;22.20;13.58;;;;;;;-0.11;79.06;99999.17;1756996;81;21190;-81
2021/12/26 10:36:14;;;;;;;24.40;13.83;;;;;;;-0.15;79.13;100003.06;1758429;81;21273;-81
2021/12/26 10:39:23;;;;;;;23.12;13.72;;;;;;;-0.12;79.44;99991.60;1758673;81;21280;-81
2021/12/26 10:42:35;;;;;;;29.27;16.50;;;;;;;0.02;78.95;99993.25;1768801;81;21307;-81
2021/12/26 10:45:41;;;;;;;24.00;13.62;;;;;;;-0.01;77.76;99991.63;1769186;81;21161;-82
2021/12/26 10:48:46;;;;;;;25.77;15.53;;;;;;;-0.09;77.16;100008.00;1767568;81;21189;-81
2021/12/26 10:51:52;;;;;;;18.65;12.78;;;;;;;-0.27;76.85;100013.78;1761257;81;21191;-82
2021/12/26 10:55:04;;;;;;;24.40;14.07;;;;;;;-0.39;76.61;100020.55;1745762;80;21320;-80
2021/12/26 10:58:13;;;;;;;23.20;14.07;;;;;;;-0.55;76.40;100027.55;1725377;83;21325;-81
2021/12/26 11:01:18;;;;;;;21.27;12.85;;;;;;;-0.76;76.69;100031.30;1725546;83;21803;-81
2021/12/26 11:04:24;;;;;;;21.97;12.10;;;;;;;-0.95;77.06;100032.25;1717225;83;21269;-80
2021/12/26 11:07:28;;;;;;;21.25;12.80;;;;;;;-1.19;77.44;100038.88;1717475;83;21182;-80
2021/12/26 11:10:49;;;;;;;23.83;13.58;;;;;;;-1.41;77.95;100043.08;1729743;83;21268;-79
2021/12/26 11:13:55;;;;;;;24.32;14.15;;;;;;;-1.59;78.45;100046.55;1701542;84;21178;-81
2021/12/26 11:17:00;;;;;;;25.50;15.15;;;;;;;-1.75;78.70;100049.03;1709042;83;21847;-80
2021/12/26 11:20:05;;;;;;;31.10;16.60;;;;;;;-1.92;79.03;100051.53;1774222;80;21257;-81
2021/12/26 11:23:17;;;;;;;31.25;15.90;;;;;;;-2.02;79.25;100055.31;1769611;81;21346;-80
2021/12/26 11:26:24;;;;;;;28.40;16.65;;;;;;;-2.11;79.17;100046.06;1770437;81;21902;-81
2021/12/26 11:29:29;;;;;;;26.48;15.08;;;;;;;-2.17;79.12;100048.27;1770628;81;21145;-80
2021/12/26 11:32:34;;;;;;;26.30;15.60;;;;;;;-2.21;79.01;100052.11;1769918;81;21300;-81
2021/12/26 11:35:40;;;;;;;25.50;15.08;;;;;;;-2.29;78.90;100057.99;1770393;81;21157;-81
2021/12/26 11:38:47;;;;;;;31.48;17.12;;;;;;;-2.35;78.96;100065.96;1771183;80;21296;-80
2021/12/26 11:42:25;;;;;;;25.12;15.00;;;;;;;-2.36;79.05;100072.73;1790930;80;21264;-80
2021/12/26 11:45:50;;;;;;;26.33;15.43;;;;;;;-2.37;79.04;100082.59;1769325;80;21138;-81
2021/12/26 11:49:38;;;;;;;19.60;11.48;;;;;;;-2.39;79.09;100082.33;1742614;82;21295;-81
2021/12/26 11:53:27;;;;;;;28.02;15.28;;;;;;;-2.41;78.89;100083.75;1692979;82;21241;-80
2021/12/26 11:57:02;;;;;;;23.75;14.63;;;;;;;-2.44;78.99;100092.48;1791410;80;21572;-81
2021/12/26 12:00:17;;;;;;;23.20;14.20;;;;;;;-2.46;78.97;100095.73;1791247;80;21276;-81
2021/12/26 12:03:29;;;;;;;22.20;13.68;;;;;;;-2.51;79.04;100095.16;1791089;80;21308;-81
2021/12/26 12:06:34;;;;;;;25.62;14.90;;;;;;;-2.50;78.93;100102.23;1791094;80;21161;-81
2021/12/26 12:09:47;;;;;;;26.70;14.28;;;;;;;-2.54;79.10;100096.24;1791248;80;21153;-80
2021/12/26 12:12:53;;;;;;;32.05;17.50;;;;;;;-2.51;79.29;100093.34;1791131;80;21287;-81
2021/12/26 12:16:13;;;;;;;28.77;16.25;;;;;;;-2.51;79.17;100096.02;1791213;80;21827;-80
2021/12/26 12:19:18;;;;;;;29.32;17.40;;;;;;;-2.51;79.31;100100.52;1753836;82;21925;-81
2021/12/26 12:22:25;;;;;;;30.85;17.35;;;;;;;-2.54;79.53;100100.25;1753513;82;21937;-81
2021/12/26 12:25:52;;;;;;;28.45;16.73;;;;;;;-2.55;79.44;100094.98;1753587;82;21315;-81
2021/12/26 12:28:55;;;;;;;27.95;15.48;;;;;;;-2.59;79.38;100092.97;1753661;82;21333;-81
2021/12/26 12:32:19;;;;;;;26.70;15.60;;;;;;;-2.62;79.15;100092.70;1753805;82;21288;-81
2021/12/26 12:35:24;;;;;;;25.85;14.75;;;;;;;-2.66;79.15;100096.53;1753671;82;21925;-81
2021/12/26 12:38:45;;;;;;;26.55;14.33;;;;;;;-2.74;78.99;100099.30;1739720;82;21313;-80
2021/12/26 12:42:00;;;;;;;25.85;14.63;;;;;;;-2.80;79.17;100093.87;1718674;83;21328;-81
2021/12/26 12:45:06;;;;;;;26.30;13.65;;;;;;;-2.84;79.39;100093.67;1721438;83;21296;-82
2021/12/26 12:48:44;;;;;;;24.32;14.55;;;;;;;-2.85;79.23;100111.55;1721006;83;21367;-81
2021/12/26 12:51:53;;;;;;;28.62;14.85;;;;;;;-2.89;79.03;100113.18;1720777;83;21348;-81
2021/12/26 12:54:58;;;;;;;25.17;14.83;;;;;;;-2.95;79.15;100120.27;1743802;81;21292;-82
2021/12/26 12:58:03;;;;;;;24.90;14.93;;;;;;;-2.99;79.37;100121.41;1762170;81;21829;-80
2021/12/26 13:01:08;;;;;;;24.10;13.98;;;;;;;-3.00;79.47;100125.05;1762216;81;21300;-81
2021/12/26 13:04:15;;;;;;;24.65;15.05;;;;;;;-3.03;79.59;100118.05;1762568;81;21277;-80
2021/12/26 13:07:30;;;;;;;29.35;16.67;;;;;;;-3.09;79.72;100127.80;1762857;81;21288;-82
2021/12/26 13:10:37;;;;;;;28.02;16.05;;;;;;;-3.14;80.00;100125.89;1744834;81;21308;-81
2021/12/26 13:13:45;;;;;;;28.45;16.48;;;;;;;-3.16;80.15;100134.47;1738350;82;21198;-81
2021/12/26 13:16:50;;;;;;;29.85;15.35;;;;;;;-3.20;80.06;100132.92;1729805;82;21331;-82
2021/12/26 13:20:06;;;;;;;35.17;18.20;;;;;;;-3.26;80.05;100127.96;1729705;81;21281;-82
2021/12/26 13:23:11;;;;;;;32.50;17.73;;;;;;;-3.37;80.02;100125.47;1729294;82;21829;-82
2021/12/26 13:26:18;;;;;;;30.60;15.53;;;;;;;-3.42;80.16;100137.40;1735088;82;21154;-82
2021/12/26 13:29:23;;;;;;;30.80;16.48;;;;;;;-3.45;80.22;100140.25;1736462;82;21221;-81
2021/12/26 13:32:28;;;;;;;32.48;17.20;;;;;;;-3.50;80.18;100144.53;1736759;82;21324;-80
2021/12/26 13:35:41;;;;;;;23.27;13.28;;;;;;;-3.56;79.86;100154.27;1737069;82;21287;-82
2021/12/26 13:38:46;;;;;;;25.45;14.13;;;;;;;-3.73;79.26;100153.05;1736918;82;21324;-81
2021/12/26 13:41:53;;;;;;;27.65;14.93;;;;;;;-3.97;78.57;100160.19;1736260;82;21901;-80
2021/12/26 13:44:59;;;;;;;26.23;14.13;;;;;;;-4.20;78.82;100155.30;1735746;82;21225;-81
2021/12/26 13:48:05;;;;;;;32.98;15.28;;;;;;;-4.29;79.85;100155.34;1736795;82;21198;-82
2021/12/26 13:51:34;;;;;;;33.38;16.25;;;;;;;-4.33;80.40;100167.13;1735826;82;21605;-80
2021/12/26 13:54:48;;;;;;;44.67;18.87;;;;;;;-4.36;80.94;100176.67;1747371;81;21280;-82
2021/12/26 13:57:46;;;;;;;36.40;20.23;;;;;;;-4.38;81.48;100180.74;1763854;81;21292;-81
2021/12/26 14:01:00;;;;;;;36.68;20.05;;;;;;;-4.40;81.77;100187.13;1759506;81;21751;-80
2021/12/26 14:04:07;;;;;;;31.30;16.48;;;;;;;-4.42;81.93;100185.03;1763567;81;21161;-81
2021/12/26 14:07:17;;;;;;;36.88;18.77;;;;;;;-4.49;82.06;100195.17;1763703;81;21288;-81
2021/12/26 14:10:25;;;;;;;32.67;17.52;;;;;;;-4.54;82.20;100202.56;1760461;81;21213;-80
2021/12/26 14:13:30;;;;;;;43.58;22.70;;;;;;;-4.59;82.32;100207.30;1717745;83;22122;-81
2021/12/26 14:16:41;;;;;;;32.78;18.00;;;;;;;-4.62;82.39;100204.78;1717463;83;21294;-81
2021/12/26 14:19:43;;;;;;;25.88;14.40;;;;;;;-4.64;82.30;100210.69;1733368;81;21934;-81
2021/12/26 14:22:48;;;;;;;25.82;15.23;;;;;;;-4.66;82.37;100216.13;1748709;82;21230;-80
2021/12/26 14:25:52;;;;;;;23.35;13.90;;;;;;;-4.66;82.35;100213.89;1737930;81;21328;-81
2021/12/26 14:29:06;;;;;;;27.60;16.32;;;;;;;-4.63;82.31;100223.08;1757870;81;21185;-81